createdAt,value
2023-02-16T00:01:51.310Z,74.92
2023-02-16T00:04:26.811Z,75.19
2023-02-16T00:06:54.628Z,75.33
2023-02-16T00:09:22.825Z,75.32
2023-02-16T00:12:08.782Z,75.70
2023-02-16T00:14:37.466Z,75.80
2023-02-16T00:17:05.077Z,75.82
2023-02-16T00:19:38.864Z,76.00
2023-02-16T00:22:11.528Z,76.04
2023-02-16T00:24:38.828Z,75.64
2023-02-16T00:27:16.179Z,76.11
2023-02-16T00:29:48.365Z,76.37
2023-02-16T00:32:15.527Z,76.18
2023-02-16T00:34:44.494Z,76.18
2023-02-16T00:37:13.352Z,76.44
2023-02-16T00:39:45.787Z,76.51
2023-02-16T00:42:18.517Z,76.95
2023-02-16T00:44:52.424Z,77.03
2023-02-16T00:47:27.896Z,76.85
2023-02-16T00:49:59.647Z,77.06
2023-02-16T00:52:29.847Z,76.72
2023-02-16T00:54:58.789Z,77.06
2023-02-16T00:57:26.602Z,76.94
2023-02-16T01:00:01.858Z,76.75
2023-02-16T01:02:31.257Z,77.22
2023-02-16T01:05:00.264Z,77.24
2023-02-16T01:07:45.836Z,77.37
2023-02-16T01:10:31.422Z,77.35
2023-02-16T01:12:59.736Z,77.46
2023-02-16T01:15:27.375Z,77.40
2023-02-16T01:17:54.394Z,77.50
2023-02-16T01:20:24.768Z,77.59
2023-02-16T01:22:53.896Z,77.55
2023-02-16T01:25:20.869Z,77.44
2023-02-16T01:27:48.167Z,77.59
2023-02-16T01:30:19.623Z,77.66
2023-02-16T01:32:51.908Z,77.48
2023-02-16T01:35:29.788Z,77.08
2023-02-16T01:37:57.205Z,77.20
2023-02-16T01:40:39.219Z,77.32
2023-02-16T01:43:21.178Z,77.27
2023-02-16T01:46:09.367Z,77.36
2023-02-16T01:48:39.165Z,77.17
2023-02-16T01:51:28.186Z,77.34
2023-02-16T01:54:11.178Z,77.40
2023-02-16T01:56:48.111Z,77.62
2023-02-16T01:59:15.862Z,77.54
2023-02-16T02:02:02.606Z,77.83
2023-02-16T02:04:54.196Z,78.15
2023-02-16T02:07:27.297Z,78.42
2023-02-16T02:10:08.922Z,78.84
2023-02-16T02:12:51.115Z,79.31
2023-02-16T02:15:23.068Z,79.70
2023-02-16T02:17:50.375Z,80.07
2023-02-16T02:20:48.385Z,80.56
2023-02-16T02:23:35.779Z,80.77
2023-02-16T02:26:13.642Z,81.08
2023-02-16T02:28:59.349Z,81.11
2023-02-16T02:31:46.106Z,81.51
2023-02-16T02:34:36.060Z,81.79
2023-02-16T02:37:03.134Z,81.91
2023-02-16T02:39:39.723Z,81.97
2023-02-16T02:42:26.133Z,81.88
2023-02-16T02:45:03.551Z,82.12
2023-02-16T02:47:43.608Z,82.29
2023-02-16T02:50:32.525Z,82.42
2023-02-16T02:53:02.449Z,82.39
2023-02-16T02:55:52.318Z,82.35
2023-02-16T02:58:40.166Z,82.44
2023-02-16T03:01:09.501Z,82.59
2023-02-16T03:03:41.382Z,82.74
2023-02-16T03:06:12.895Z,83.17
2023-02-16T03:08:41.746Z,83.28
2023-02-16T03:11:31.697Z,83.44
2023-02-16T03:14:03.957Z,83.55
2023-02-16T03:16:46.186Z,83.71
2023-02-16T03:19:33.565Z,83.65
2023-02-16T03:22:19.674Z,83.60
2023-02-16T03:25:05.569Z,83.72
2023-02-16T03:27:55.370Z,83.89
2023-02-16T03:30:23.890Z,84.09
2023-02-16T03:32:51.175Z,84.42
2023-02-16T03:35:18.321Z,84.64
2023-02-16T03:37:45.394Z,84.54
2023-02-16T03:40:31.170Z,84.44
2023-02-16T03:42:59.508Z,84.81
2023-02-16T03:45:26.628Z,84.72
2023-02-16T03:47:54.418Z,84.96
2023-02-16T03:50:21.755Z,85.17
2023-02-16T03:52:49.170Z,85.35
2023-02-16T03:55:16.610Z,85.56
2023-02-16T03:57:43.591Z,85.49
2023-02-16T04:00:11.474Z,85.56
2023-02-16T04:02:41.612Z,85.71
2023-02-16T04:05:10.414Z,85.82
2023-02-16T04:07:41.184Z,85.93
2023-02-16T04:10:08.340Z,85.67
2023-02-16T04:12:38.441Z,85.62
2023-02-16T04:15:12.724Z,85.68
2023-02-16T04:17:41.327Z,85.55
2023-02-16T04:20:12.399Z,85.65
2023-02-16T04:22:40.491Z,85.59
2023-02-16T04:25:08.908Z,85.66
2023-02-16T04:27:38.358Z,85.61
2023-02-16T04:30:07.665Z,85.80
2023-02-16T04:32:34.966Z,85.58
2023-02-16T04:35:02.159Z,85.72
2023-02-16T04:37:32.647Z,85.67
2023-02-16T04:40:03.177Z,85.50
2023-02-16T04:42:30.969Z,85.47
2023-02-16T04:44:58.501Z,85.84
2023-02-16T04:47:30.520Z,85.65
2023-02-16T04:49:57.571Z,85.63
2023-02-16T04:52:24.604Z,85.67
2023-02-16T04:54:55.159Z,85.53
2023-02-16T04:57:24.327Z,85.32
2023-02-16T04:59:51.672Z,85.56
2023-02-16T05:02:18.630Z,85.28
2023-02-16T05:04:45.749Z,85.41
2023-02-16T05:07:13.666Z,85.57
2023-02-16T05:09:40.822Z,85.25
2023-02-16T05:12:27.577Z,85.12
2023-02-16T05:14:54.696Z,85.23
2023-02-16T05:17:24.186Z,85.35
2023-02-16T05:19:54.859Z,85.17
2023-02-16T05:22:21.920Z,84.91
2023-02-16T05:24:49.608Z,84.63
2023-02-16T05:27:37.227Z,84.78
2023-02-16T05:30:04.775Z,84.80
2023-02-16T05:32:32.056Z,84.91
2023-02-16T05:34:59.346Z,84.96
2023-02-16T05:37:27.406Z,84.69
2023-02-16T05:39:54.674Z,84.76
2023-02-16T05:42:22.125Z,84.76
2023-02-16T05:44:49.109Z,84.63
2023-02-16T05:47:16.185Z,84.51
2023-02-16T05:49:43.681Z,84.67
2023-02-16T05:52:17.771Z,84.30
2023-02-16T05:54:46.151Z,84.23
2023-02-16T05:57:13.076Z,84.74
2023-02-16T05:59:45.066Z,84.77
2023-02-16T06:02:12.100Z,84.79
2023-02-16T06:04:39.161Z,84.92
2023-02-16T06:07:06.175Z,84.79
2023-02-16T06:09:34.917Z,84.57
2023-02-16T06:12:11.267Z,84.92
2023-02-16T06:14:38.211Z,84.84
2023-02-16T06:17:05.207Z,84.35
2023-02-16T06:19:32.606Z,84.07
2023-02-16T06:22:03.458Z,83.84
2023-02-16T06:24:35.281Z,83.52
2023-02-16T06:29:44.350Z,82.37
2023-02-16T06:32:11.504Z,82.28
2023-02-16T06:34:41.845Z,81.81
2023-02-16T06:37:11.970Z,81.26
2023-02-16T06:39:39.060Z,80.98
2023-02-16T06:42:06.030Z,80.44
2023-02-16T06:44:33.295Z,79.60
2023-02-16T06:47:01.415Z,79.39
2023-02-16T06:49:29.563Z,79.06
2023-02-16T06:51:56.655Z,79.03
2023-02-16T06:54:23.676Z,78.89
2023-02-16T06:56:51.377Z,78.48
2023-02-16T06:59:21.418Z,78.13
2023-02-16T07:01:48.726Z,77.85
2023-02-16T07:04:15.899Z,77.41
2023-02-16T07:06:43.002Z,77.49
2023-02-16T07:09:11.615Z,77.25
2023-02-16T07:11:42.593Z,76.52
2023-02-16T07:14:09.896Z,76.68
2023-02-16T07:16:36.948Z,76.14
2023-02-16T07:19:04.305Z,75.81
2023-02-16T07:21:34.763Z,75.76
2023-02-16T07:24:05.577Z,75.70
2023-02-16T07:26:35.318Z,75.35
2023-02-16T07:29:02.584Z,75.45
2023-02-16T07:31:29.915Z,75.83
2023-02-16T07:33:57.019Z,75.87
2023-02-16T07:36:24.165Z,75.66
2023-02-16T07:38:51.907Z,75.50
2023-02-16T07:41:18.966Z,75.00
2023-02-16T07:43:45.862Z,74.74
2023-02-16T07:46:15.561Z,74.31
2023-02-16T07:48:42.907Z,74.12
2023-02-16T07:51:10.340Z,74.15
2023-02-16T07:53:38.137Z,74.08
2023-02-16T07:56:09.124Z,74.24
2023-02-16T07:58:37.052Z,74.29
2023-02-16T08:01:10.371Z,74.44
2023-02-16T08:03:39.202Z,73.90
2023-02-16T08:06:07.716Z,73.62
2023-02-16T08:08:35.646Z,73.28
2023-02-16T08:11:18.373Z,73.25
2023-02-16T08:13:46.289Z,73.07
2023-02-16T08:16:18.278Z,73.22
2023-02-16T08:18:45.530Z,72.85
2023-02-16T08:21:16.271Z,72.96
2023-02-16T08:23:47.758Z,72.46
2023-02-16T08:26:17.501Z,72.07
2023-02-16T08:28:50.306Z,71.82
2023-02-16T08:31:23.711Z,71.30
2023-02-16T08:33:52.226Z,70.61
2023-02-16T08:36:23.708Z,70.85
2023-02-16T08:38:52.909Z,70.96
2023-02-16T08:41:21.806Z,70.53
2023-02-16T08:43:49.344Z,70.70
2023-02-16T08:46:17.795Z,70.51
2023-02-16T08:48:45.402Z,70.29
2023-02-16T08:51:17.806Z,70.74
2023-02-16T08:53:46.774Z,70.51
2023-02-16T08:56:24.392Z,70.15
2023-02-16T08:58:57.892Z,69.23
2023-02-16T09:01:25.446Z,68.67
2023-02-16T09:03:52.793Z,68.54
2023-02-16T09:06:21.666Z,68.18
2023-02-16T09:08:57.025Z,68.20
2023-02-16T09:11:25.761Z,67.66
2023-02-16T09:13:53.515Z,67.97
2023-02-16T09:16:27.755Z,68.11
2023-02-16T09:18:56.226Z,68.73
2023-02-16T09:21:25.961Z,69.18
2023-02-16T09:23:55.965Z,69.24
2023-02-16T09:26:24.235Z,68.73
2023-02-16T09:28:51.928Z,69.23
2023-02-16T09:31:28.538Z,70.08
2023-02-16T09:34:05.484Z,69.89
2023-02-16T09:36:32.657Z,70.23
2023-02-16T09:39:00.180Z,69.63
2023-02-16T09:41:58.709Z,69.04
2023-02-16T09:44:38.170Z,68.29
2023-02-16T09:47:11.864Z,68.16
2023-02-16T09:49:42.418Z,67.84
2023-02-16T09:52:09.325Z,67.35
2023-02-16T09:54:55.681Z,66.61
2023-02-16T09:57:28.838Z,66.29
2023-02-16T10:00:02.269Z,65.55
2023-02-16T10:02:32.306Z,64.98
2023-02-16T10:05:19.150Z,62.25
2023-02-16T10:08:03.518Z,62.95
2023-02-16T10:10:40.065Z,63.86
2023-02-16T10:13:34.245Z,64.54
2023-02-16T10:16:04.039Z,65.00
2023-02-16T10:18:41.594Z,65.53
2023-02-16T10:21:15.626Z,65.61
2023-02-16T10:23:43.128Z,65.28
2023-02-16T10:26:21.609Z,64.99
2023-02-16T10:28:51.373Z,65.14
2023-02-16T10:31:43.565Z,65.23
2023-02-16T10:34:17.003Z,65.22
2023-02-16T10:37:02.297Z,64.59
2023-02-16T10:39:48.013Z,64.76
2023-02-16T10:42:27.450Z,64.49
2023-02-16T10:45:15.519Z,64.99
2023-02-16T10:47:44.035Z,65.21
2023-02-16T10:50:25.648Z,65.74
2023-02-16T10:52:57.961Z,66.27
2023-02-16T10:55:35.473Z,66.64
2023-02-16T10:58:02.939Z,66.84
2023-02-16T11:01:04.744Z,66.78
2023-02-16T11:03:38.754Z,66.61
2023-02-16T11:06:17.587Z,66.41
2023-02-16T11:08:52.091Z,66.58
2023-02-16T11:11:19.388Z,66.16
2023-02-16T11:13:50.126Z,66.30
2023-02-16T11:16:25.452Z,66.08
2023-02-16T11:19:00.173Z,66.28
2023-02-16T11:22:01.168Z,66.38
2023-02-16T11:24:34.909Z,65.68
2023-02-16T11:27:07.777Z,65.65
2023-02-16T11:29:35.635Z,65.62
2023-02-16T11:32:08.827Z,65.59
2023-02-16T11:34:41.415Z,65.26
2023-02-16T11:37:34.740Z,65.19
2023-02-16T11:40:17.291Z,65.37
2023-02-16T11:42:53.321Z,65.48
2023-02-16T11:45:30.315Z,65.12
2023-02-16T11:48:10.123Z,65.04
2023-02-16T11:50:38.981Z,65.29
2023-02-16T11:53:12.480Z,64.71
2023-02-16T11:55:46.905Z,65.07
2023-02-16T11:58:29.561Z,65.10
2023-02-16T12:01:00.309Z,65.27
2023-02-16T12:03:43.535Z,64.90
2023-02-16T12:06:26.786Z,65.56
2023-02-16T12:09:00.300Z,65.40
2023-02-16T12:11:51.544Z,65.65
2023-02-16T12:14:32.551Z,65.72
2023-02-16T12:17:07.616Z,65.58
2023-02-16T12:19:43.726Z,65.65
2023-02-16T12:22:34.071Z,65.61
2023-02-16T12:25:26.575Z,65.23
2023-02-16T12:28:10.192Z,65.40
2023-02-16T12:30:45.012Z,64.88
2023-02-16T12:33:41.826Z,64.38
2023-02-16T12:36:40.970Z,63.99
2023-02-16T12:39:16.875Z,62.93
2023-02-16T12:42:04.517Z,62.33
2023-02-16T12:44:42.172Z,62.22
2023-02-16T12:47:13.830Z,61.94
2023-02-16T12:49:53.725Z,61.82
2023-02-16T12:52:43.521Z,61.36
2023-02-16T12:55:19.327Z,61.65
2023-02-16T12:57:59.796Z,61.80
2023-02-16T13:00:48.056Z,61.79
2023-02-16T13:03:16.069Z,61.84
2023-02-16T13:05:44.871Z,62.21
2023-02-16T13:08:39.387Z,62.55
2023-02-16T13:11:12.104Z,63.26
2023-02-16T13:13:42.926Z,63.89
2023-02-16T13:16:30.573Z,63.91
2023-02-16T13:18:58.816Z,64.34
2023-02-16T13:21:29.040Z,64.37
2023-02-16T13:24:40.779Z,65.05
2023-02-16T13:27:45.662Z,65.67
2023-02-16T13:30:51.359Z,65.61
2023-02-16T13:33:27.741Z,65.81
2023-02-16T13:36:25.757Z,65.99
2023-02-16T13:39:08.069Z,66.12
2023-02-16T13:41:53.363Z,66.03
2023-02-16T13:44:24.515Z,66.27
2023-02-16T13:46:53.961Z,66.18
2023-02-16T13:49:43.404Z,65.96
2023-02-16T13:52:27.304Z,65.93
2023-02-16T13:54:57.156Z,66.13
2023-02-16T13:58:04.777Z,66.06
2023-02-16T14:00:38.610Z,65.98
2023-02-16T14:03:35.304Z,66.22
2023-02-16T14:06:32.636Z,66.10
2023-02-16T14:09:14.631Z,66.10
2023-02-16T14:11:53.644Z,66.16
2023-02-16T14:14:43.650Z,66.32
2023-02-16T14:17:19.762Z,66.40
2023-02-16T14:19:56.417Z,65.78
2023-02-16T14:22:55.484Z,65.75
2023-02-16T14:25:33.140Z,65.60
2023-02-16T14:28:23.340Z,65.60
2023-02-16T14:30:56.444Z,65.79
2023-02-16T14:33:37.854Z,66.42
2023-02-16T14:36:18.469Z,65.94
2023-02-16T14:38:47.551Z,66.35
2023-02-16T14:41:25.190Z,66.50
2023-02-16T14:43:56.396Z,66.50
2023-02-16T14:46:30.726Z,66.66
2023-02-16T14:49:07.857Z,66.88
2023-02-16T14:51:53.524Z,67.01
2023-02-16T14:55:15.141Z,66.96
2023-02-16T14:57:51.984Z,66.90
2023-02-16T15:00:51.783Z,67.18
2023-02-16T15:03:23.465Z,67.46
2023-02-16T15:06:04.184Z,68.11
2023-02-16T15:09:08.192Z,68.39
2023-02-16T15:12:02.014Z,68.60
2023-02-16T15:14:55.129Z,69.08
2023-02-16T15:17:27.170Z,69.40
2023-02-16T15:19:56.296Z,69.99
2023-02-16T15:22:26.594Z,70.47
2023-02-16T15:25:04.600Z,71.13
2023-02-16T15:27:33.206Z,71.41
2023-02-16T15:30:26.201Z,72.03
2023-02-16T15:33:23.147Z,72.48
2023-02-16T15:36:01.779Z,72.87
2023-02-16T15:38:35.889Z,73.09
2023-02-16T15:41:08.691Z,73.18
2023-02-16T15:43:47.744Z,73.26
2023-02-16T15:46:23.386Z,73.69
2023-02-16T15:48:51.102Z,73.97
2023-02-16T15:51:25.476Z,74.34
2023-02-16T15:54:00.149Z,74.46
2023-02-16T15:56:45.006Z,74.50
2023-02-16T15:59:32.917Z,74.71
2023-02-16T16:02:10.179Z,74.93
2023-02-16T16:04:40.063Z,74.75
2023-02-16T16:07:08.857Z,74.75
2023-02-16T16:09:38.998Z,74.71
2023-02-16T16:12:08.741Z,74.92
2023-02-16T16:14:38.824Z,74.87
2023-02-16T16:17:06.041Z,75.07
2023-02-16T16:19:35.948Z,75.05
2023-02-16T16:22:05.412Z,75.53
2023-02-16T16:24:38.346Z,75.61
2023-02-16T16:27:11.977Z,75.59
2023-02-16T16:29:47.623Z,76.05
2023-02-16T16:32:27.116Z,76.04
2023-02-16T16:34:54.539Z,76.06
2023-02-16T16:37:26.829Z,76.13
2023-02-16T16:40:06.216Z,76.47
2023-02-16T16:42:34.204Z,76.51
2023-02-16T16:45:07.986Z,76.42
2023-02-16T16:47:40.379Z,76.59
2023-02-16T16:50:15.079Z,76.58
2023-02-16T16:52:46.311Z,76.71
2023-02-16T16:55:19.585Z,76.71
2023-02-16T16:57:50.672Z,76.78
2023-02-16T17:00:18.504Z,76.83
2023-02-16T17:02:45.888Z,77.31
2023-02-16T17:05:13.138Z,77.49
2023-02-16T17:07:40.187Z,77.73
2023-02-16T17:10:11.442Z,77.40
2023-02-16T17:12:41.602Z,77.36
2023-02-16T17:15:20.130Z,77.18
2023-02-16T17:17:49.008Z,76.66
2023-02-16T17:20:27.273Z,76.44
2023-02-16T17:22:54.601Z,75.77
2023-02-16T17:25:21.719Z,75.86
2023-02-16T17:27:49.129Z,76.00
2023-02-16T17:30:19.392Z,75.86
2023-02-16T17:32:47.087Z,75.55
2023-02-16T17:35:17.121Z,75.58
2023-02-16T17:37:44.320Z,75.42
2023-02-16T17:40:20.542Z,75.69
2023-02-16T17:42:50.189Z,75.63
2023-02-16T17:45:19.714Z,75.95
2023-02-16T17:47:52.544Z,75.91
2023-02-16T17:50:26.267Z,75.58
2023-02-16T17:52:57.481Z,75.51
2023-02-16T17:55:24.872Z,75.38
2023-02-16T17:57:52.082Z,75.19
2023-02-16T18:00:21.246Z,75.17
2023-02-16T18:02:48.360Z,74.84
2023-02-16T18:05:16.548Z,74.86
2023-02-16T18:07:46.786Z,74.54
2023-02-16T18:10:22.884Z,74.60
2023-02-16T18:12:49.873Z,74.44
2023-02-16T18:15:17.391Z,74.78
2023-02-16T18:17:44.712Z,75.17
2023-02-16T18:20:16.505Z,75.40
2023-02-16T18:22:43.682Z,75.38
2023-02-16T18:25:10.648Z,75.67
2023-02-16T18:27:41.857Z,75.23
2023-02-16T18:30:10.228Z,75.74
2023-02-16T18:32:37.591Z,75.73
2023-02-16T18:35:06.027Z,76.02
2023-02-16T18:37:39.617Z,75.63
2023-02-16T18:40:10.918Z,75.38
2023-02-16T18:42:38.917Z,75.35
2023-02-16T18:45:06.282Z,75.09
2023-02-16T18:47:37.397Z,75.28
2023-02-16T18:50:09.047Z,74.99
2023-02-16T18:52:39.449Z,74.84
2023-02-16T18:55:07.290Z,74.77
2023-02-16T18:57:37.187Z,74.52
2023-02-16T19:00:09.353Z,74.58
2023-02-16T19:02:41.098Z,74.53
2023-02-16T19:05:10.544Z,74.52
2023-02-16T19:07:40.120Z,74.52
2023-02-16T19:10:10.491Z,74.48
2023-02-16T19:12:39.569Z,74.46
2023-02-16T19:15:07.926Z,74.86
2023-02-16T19:17:35.264Z,74.70
2023-02-16T19:20:05.289Z,74.52
2023-02-16T19:22:36.910Z,74.62
2023-02-16T19:25:06.043Z,74.20
2023-02-16T19:27:33.943Z,74.06
2023-02-16T19:30:01.163Z,74.26
2023-02-16T19:32:30.896Z,74.16
2023-02-16T19:34:59.183Z,74.39
2023-02-16T19:37:26.157Z,74.40
2023-02-16T19:39:53.105Z,74.48
2023-02-16T19:42:23.897Z,74.35
2023-02-16T19:44:51.641Z,74.15
2023-02-16T19:47:18.730Z,74.14
2023-02-16T19:49:50.472Z,74.27
2023-02-16T19:52:17.755Z,74.26
2023-02-16T19:54:44.887Z,74.34
2023-02-16T19:57:11.879Z,74.35
2023-02-16T19:59:38.813Z,74.70
2023-02-16T20:02:08.372Z,74.75
2023-02-16T20:04:35.443Z,74.70
2023-02-16T20:07:04.888Z,74.74
2023-02-16T20:09:33.155Z,74.72
2023-02-16T20:12:00.141Z,74.65
2023-02-16T20:14:27.083Z,74.99
2023-02-16T20:17:03.340Z,74.86
2023-02-16T20:19:30.413Z,75.07
2023-02-16T20:21:57.569Z,75.11
2023-02-16T20:24:24.524Z,74.97
2023-02-16T20:26:52.231Z,75.17
2023-02-16T20:29:20.984Z,75.18
2023-02-16T20:31:53.801Z,75.71
2023-02-16T20:34:21.134Z,75.92
2023-02-16T20:36:48.172Z,76.02
2023-02-16T20:39:15.660Z,76.24
2023-02-16T20:41:42.942Z,75.98
2023-02-16T20:44:10.212Z,76.31
2023-02-16T20:46:38.504Z,76.15
2023-02-16T20:49:07.221Z,76.07
2023-02-16T20:51:34.677Z,75.75
2023-02-16T20:54:02.771Z,75.82
2023-02-16T20:56:29.983Z,75.88
2023-02-16T20:58:57.814Z,76.30
2023-02-16T21:01:37.588Z,76.67
2023-02-16T21:04:07.418Z,76.92
2023-02-16T21:06:36.314Z,77.24
2023-02-16T21:09:04.556Z,77.79
2023-02-16T21:11:32.260Z,78.41
2023-02-16T21:14:02.326Z,78.54
2023-02-16T21:16:29.671Z,78.62
2023-02-16T21:18:56.978Z,78.89
2023-02-16T21:21:24.592Z,79.08
2023-02-16T21:23:53.886Z,79.17
2023-02-16T21:26:23.614Z,79.24
2023-02-16T21:28:50.675Z,79.00
2023-02-16T21:31:21.691Z,78.57
2023-02-16T21:33:49.268Z,78.48
2023-02-16T21:36:19.887Z,78.04
2023-02-16T21:38:47.254Z,77.99
2023-02-16T21:41:28.674Z,78.09
2023-02-16T21:44:04.057Z,78.03
2023-02-16T21:46:33.617Z,78.12
2023-02-16T21:49:02.655Z,78.05
2023-02-16T21:51:32.985Z,78.26
2023-02-16T21:54:00.942Z,78.24
2023-02-16T21:56:35.398Z,78.32
2023-02-16T21:59:03.684Z,78.61
2023-02-16T22:01:33.815Z,78.85
2023-02-16T22:04:02.526Z,79.30
2023-02-16T22:06:35.151Z,79.31
2023-02-16T22:09:06.123Z,79.50
2023-02-16T22:11:33.480Z,79.55
2023-02-16T22:14:01.397Z,79.67
2023-02-16T22:16:30.333Z,79.88
2023-02-16T22:19:04.063Z,80.28
2023-02-16T22:21:32.218Z,80.08
2023-02-16T22:24:00.853Z,80.33
2023-02-16T22:26:32.008Z,80.37
2023-02-16T22:28:59.198Z,80.22
2023-02-16T22:31:27.515Z,80.60
2023-02-16T22:33:57.650Z,80.63
2023-02-16T22:36:25.727Z,80.67
2023-02-16T22:38:53.590Z,80.17
2023-02-16T22:41:21.253Z,80.55
2023-02-16T22:43:48.573Z,80.40
2023-02-16T22:46:19.771Z,80.63
2023-02-16T22:48:49.778Z,80.44
2023-02-16T22:51:18.064Z,80.28
2023-02-16T22:53:46.003Z,80.38
2023-02-16T22:56:17.376Z,80.14
2023-02-16T22:58:45.067Z,80.51
2023-02-16T23:01:17.727Z,80.43
2023-02-16T23:03:50.039Z,80.50
2023-02-16T23:06:19.298Z,80.85
2023-02-16T23:08:47.100Z,80.87
2023-02-16T23:11:14.332Z,81.01
2023-02-16T23:13:41.361Z,81.02
2023-02-16T23:16:11.836Z,81.12
2023-02-16T23:18:39.133Z,81.39
2023-02-16T23:21:18.856Z,81.69
2023-02-16T23:23:47.195Z,81.88
2023-02-16T23:26:14.403Z,81.80
2023-02-16T23:28:42.134Z,81.91
2023-02-16T23:31:10.277Z,82.18
2023-02-16T23:33:37.284Z,82.12
2023-02-16T23:36:04.842Z,82.40
2023-02-16T23:38:32.211Z,82.40
2023-02-16T23:41:08.299Z,82.68
2023-02-16T23:43:35.768Z,82.98
2023-02-16T23:46:06.217Z,83.21
2023-02-16T23:48:33.551Z,83.29
2023-02-16T23:51:00.546Z,83.29
2023-02-16T23:53:28.371Z,83.52
2023-02-16T23:56:06.740Z,83.70
2023-02-16T23:58:36.982Z,83.98
